Time;durP1;ratioP1;P1;durP2;ratioP2;P2;SDS_P1;SDS_P2;PMS_P1;PMS_P2;Temp;Humidity;BMP_temperature;BMP_pressure;BME280_temperature;BME280_humidity;BME280_pressure;Samples;Min_cycle;Max_cycle;Signal;HPM_P1;HPM_P2
2021/12/01 00:01:30;;;;;;;1999.90;999.90;;;;;;;0.48;59.61;99922.81;4903701;28;99310;-74
2021/12/01 00:03:58;;;;;;;1999.90;999.90;;;;;;;0.51;59.79;99930.81;4904570;28;96855;-75
2021/12/01 00:06:26;;;;;;;1999.90;999.90;;;;;;;0.51;59.51;99931.72;4905397;28;97641;-76
2021/12/01 00:08:54;;;;;;;1999.90;999.90;;;;;;;0.51;59.67;99930.81;4904150;28;99619;-74
2021/12/01 00:11:22;;;;;;;1999.90;999.90;;;;;;;0.53;59.52;99926.56;4903744;28;97633;-74
2021/12/01 00:13:50;;;;;;;1999.90;999.90;;;;;;;0.54;59.52;99920.50;4904773;28;96970;-74
2021/12/01 00:16:20;;;;;;;1999.90;999.90;;;;;;;0.56;59.58;99927.59;4904679;28;96795;-75
2021/12/01 00:18:48;;;;;;;1999.90;999.90;;;;;;;0.60;59.56;99912.91;4905074;28;97846;-74
2021/12/01 00:21:16;;;;;;;1999.90;999.90;;;;;;;0.61;59.09;99915.59;4905911;28;98701;-73
2021/12/01 00:23:45;;;;;;;1999.90;999.90;;;;;;;0.61;60.06;99914.72;4905681;28;97576;-74
2021/12/01 00:26:13;;;;;;;1999.90;999.90;;;;;;;0.60;59.43;99908.59;4885605;28;97117;-77
2021/12/01 00:28:41;;;;;;;1999.90;999.90;;;;;;;0.61;59.76;99902.50;4887044;28;98290;-75
2021/12/01 00:31:09;;;;;;;1999.90;999.90;;;;;;;0.60;59.32;99892.88;4904710;28;97552;-75
2021/12/01 00:33:41;;;;;;;1999.90;999.90;;;;;;;0.59;59.62;99896.34;4886803;28;97753;-76
2021/12/01 00:36:13;;;;;;;1999.90;999.90;;;;;;;0.59;59.65;99887.59;4890474;28;98469;-75
2021/12/01 00:38:42;;;;;;;1999.90;999.90;;;;;;;0.60;59.49;99882.41;4887504;28;99083;-75
2021/12/01 00:41:11;;;;;;;1999.90;999.90;;;;;;;0.61;60.06;99876.34;4903146;28;97796;-75
2021/12/01 00:43:40;;;;;;;1999.90;999.90;;;;;;;0.63;59.72;99874.69;4903184;28;97434;-74
2021/12/01 00:46:12;;;;;;;1999.90;999.90;;;;;;;0.65;60.04;99869.56;4903799;28;97134;-73
2021/12/01 00:48:42;;;;;;;1999.90;999.90;;;;;;;0.63;59.39;99858.13;4887926;28;99228;-77
2021/12/01 00:51:10;;;;;;;1999.90;999.90;;;;;;;0.65;59.84;99853.84;4904206;28;97592;-74
2021/12/01 00:53:38;;;;;;;1999.90;999.90;;;;;;;0.67;59.37;99853.06;4904794;28;97203;-74
2021/12/01 00:56:07;;;;;;;1999.90;999.90;;;;;;;0.71;59.53;99860.25;4893090;28;99356;-77
2021/12/01 00:58:35;;;;;;;1999.90;999.90;;;;;;;0.70;59.77;99852.31;4893483;28;99886;-74
2021/12/01 01:01:03;;;;;;;1999.90;999.90;;;;;;;0.71;59.81;99843.63;4886448;28;97988;-74
2021/12/01 01:03:32;;;;;;;1999.90;999.90;;;;;;;0.72;59.76;99841.09;4887603;28;97230;-75
2021/12/01 01:06:02;;;;;;;1999.90;999.90;;;;;;;0.73;59.38;99836.75;4889110;28;97629;-75
2021/12/01 01:08:30;;;;;;;1999.90;999.90;;;;;;;0.72;59.61;99824.50;4903781;28;97862;-76
2021/12/01 01:11:10;;;;;;;1999.90;999.90;;;;;;;0.74;59.97;99825.47;4903559;28;98668;-75
2021/12/01 01:16:25;;;;;;;1999.90;999.90;;;;;;;0.79;59.94;99818.72;4887144;28;97229;-76
2021/12/01 01:18:57;;;;;;;1999.90;999.90;;;;;;;0.79;59.33;99811.75;4898702;28;99183;-75
2021/12/01 01:21:29;;;;;;;1999.90;999.90;;;;;;;0.80;59.67;99816.16;4903776;28;98803;-74
2021/12/01 01:23:58;;;;;;;1999.90;999.90;;;;;;;0.84;59.86;99801.47;4901256;28;98015;-75
2021/12/01 01:26:26;;;;;;;1999.90;999.90;;;;;;;0.89;59.57;99798.22;4904412;28;96918;-75
2021/12/01 01:28:54;;;;;;;1999.90;999.90;;;;;;;0.90;59.73;99797.41;4887580;28;99197;-77
2021/12/01 01:31:23;;;;;;;1999.90;999.90;;;;;;;0.94;59.67;99785.34;4902474;28;97691;-77
2021/12/01 01:33:51;;;;;;;1999.90;999.90;;;;;;;0.96;59.03;99779.31;4898430;28;96900;-77
2021/12/01 01:36:20;;;;;;;1999.90;999.90;;;;;;;1.00;59.35;99769.88;4902954;28;97231;-77
2021/12/01 01:38:49;;;;;;;1999.90;999.90;;;;;;;1.02;59.36;99762.97;4886574;28;98599;-75
2021/12/01 01:41:18;;;;;;;1999.90;999.90;;;;;;;1.05;59.48;99756.16;4904711;28;97668;-76
2021/12/01 01:43:49;;;;;;;1999.90;999.90;;;;;;;1.07;59.55;99761.44;4907667;28;96783;-76
2021/12/01 01:46:17;;;;;;;1999.90;999.90;;;;;;;1.09;58.94;99755.44;4889542;28;97198;-75
2021/12/01 01:48:52;;;;;;;1999.90;999.90;;;;;;;1.09;59.64;99751.94;4896907;28;97927;-75
2021/12/01 01:51:26;;;;;;;1999.90;999.90;;;;;;;1.07;59.25;99736.16;4905962;28;98849;-76
2021/12/01 01:53:57;;;;;;;1999.90;999.90;;;;;;;1.06;59.78;99742.25;4889109;28;96911;-75
2021/12/01 01:56:26;;;;;;;1999.90;999.90;;;;;;;1.01;59.99;99735.00;4907227;28;97871;-74
2021/12/01 01:58:54;;;;;;;1999.90;999.90;;;;;;;1.01;59.97;99729.78;4906992;28;98292;-75
2021/12/01 02:01:44;;;;;;;1999.90;999.90;;;;;;;1.03;59.53;99728.13;4907308;28;97628;-74
2021/12/01 02:04:15;;;;;;;1999.90;999.90;;;;;;;1.04;59.69;99724.66;4907876;28;97114;-74
2021/12/01 02:06:46;;;;;;;1999.90;999.90;;;;;;;1.05;59.41;99721.22;4895437;28;97145;-74
2021/12/01 02:09:16;;;;;;;1999.90;999.90;;;;;;;1.06;59.43;99712.53;4908443;28;97994;-75
2021/12/01 02:11:44;;;;;;;1999.90;999.90;;;;;;;1.06;59.55;99707.28;4891229;28;99733;-75
2021/12/01 02:14:13;;;;;;;1999.90;999.90;;;;;;;1.06;59.97;99704.66;4907069;28;97763;-73
2021/12/01 02:16:41;;;;;;;1999.90;999.90;;;;;;;1.04;60.13;99698.47;4908439;28;97077;-73
2021/12/01 02:19:09;;;;;;;1999.90;999.90;;;;;;;1.04;60.07;99688.00;4896305;28;100673;-75
2021/12/01 02:21:39;;;;;;;1999.90;999.90;;;;;;;1.04;59.85;99688.00;4887364;28;98179;-76
2021/12/01 02:24:09;;;;;;;1999.90;999.90;;;;;;;1.04;59.92;99680.13;4890893;28;97608;-74
2021/12/01 02:26:39;;;;;;;1999.90;999.90;;;;;;;1.06;59.84;99674.13;4908220;28;96961;-74
2021/12/01 02:29:09;;;;;;;1999.90;999.90;;;;;;;1.07;59.63;99672.38;4892058;28;99109;-74
2021/12/01 02:31:38;;;;;;;1999.90;999.90;;;;;;;1.05;59.76;99668.84;4914895;28;97734;-74
2021/12/01 02:34:08;;;;;;;1999.90;999.90;;;;;;;1.05;59.38;99663.59;4927780;28;96509;-76
2021/12/01 02:36:39;;;;;;;1999.90;999.90;;;;;;;1.05;59.92;99658.38;4900492;28;96988;-75
2021/12/01 02:39:09;;;;;;;1999.90;999.90;;;;;;;1.01;59.87;99651.19;4924544;28;97561;-74
2021/12/01 02:41:38;;;;;;;1999.90;999.90;;;;;;;0.98;60.11;99646.72;4925090;28;97564;-74
2021/12/01 02:44:08;;;;;;;1999.90;999.90;;;;;;;0.99;59.74;99638.06;4928733;28;96769;-75
2021/12/01 02:46:37;;;;;;;1999.90;999.90;;;;;;;1.00;59.80;99634.59;4924355;28;96799;-74
2021/12/01 02:49:06;;;;;;;1999.90;999.90;;;;;;;1.02;59.66;99624.16;4905571;28;99357;-76
2021/12/01 02:51:36;;;;;;;1999.90;999.90;;;;;;;1.03;60.25;99611.13;4911779;28;97623;-76
2021/12/01 02:54:06;;;;;;;1999.90;999.90;;;;;;;1.03;60.16;99605.03;4912760;28;98871;-75
2021/12/01 02:56:37;;;;;;;1999.90;999.90;;;;;;;1.02;60.15;99600.59;4893938;28;98952;-74
2021/12/01 02:59:06;;;;;;;1999.90;999.90;;;;;;;1.02;60.12;99587.50;4910874;28;99762;-74
2021/12/01 03:01:34;;;;;;;1999.90;999.90;;;;;;;1.02;60.23;99587.50;4905725;28;97868;-76
2021/12/01 03:04:03;;;;;;;1999.90;999.90;;;;;;;0.99;60.46;99576.91;4906630;28;97138;-75
2021/12/01 03:06:33;;;;;;;1999.90;999.90;;;;;;;0.99;60.68;99574.28;4910406;28;96892;-73
2021/12/01 03:09:01;;;;;;;1999.90;999.90;;;;;;;1.03;60.21;99555.25;4911768;28;97721;-75
2021/12/01 03:11:34;;;;;;;1999.90;999.90;;;;;;;1.04;60.03;99551.78;4892610;28;99403;-74
2021/12/01 03:14:02;;;;;;;1999.90;999.90;;;;;;;1.02;60.80;99538.63;4891643;28;96804;-75
2021/12/01 03:16:30;;;;;;;1999.90;999.90;;;;;;;1.03;60.23;99534.31;4898761;28;96903;-74
2021/12/01 03:18:59;;;;;;;1999.90;999.90;;;;;;;1.03;60.36;99529.94;4891759;28;99142;-75
2021/12/01 03:21:27;;;;;;;1999.90;999.90;;;;;;;0.99;60.49;99519.28;4897238;28;98520;-75
2021/12/01 03:23:55;;;;;;;1999.90;999.90;;;;;;;0.91;60.68;99513.75;4907049;28;97375;-74
2021/12/01 03:26:23;;;;;;;1999.90;999.90;;;;;;;0.87;61.05;99505.72;4908330;28;97202;-76
2021/12/01 03:28:53;;;;;;;1999.90;999.90;;;;;;;0.87;60.99;99501.38;4907950;28;98228;-73
2021/12/01 03:31:21;;;;;;;1999.90;999.90;;;;;;;0.89;60.59;99502.31;4900835;28;97493;-74
2021/12/01 03:33:50;;;;;;;1999.90;999.90;;;;;;;0.86;61.23;99489.13;4904972;28;96921;-74
2021/12/01 03:36:18;;;;;;;1999.90;999.90;;;;;;;0.84;61.12;99485.56;4882362;28;97696;-76
2021/12/01 03:38:46;;;;;;;1999.90;999.90;;;;;;;0.80;61.42;99473.19;4903826;28;97383;-76
2021/12/01 03:41:15;;;;;;;1999.90;999.90;;;;;;;0.81;61.86;99472.31;4880342;28;97984;-76
2021/12/01 03:43:43;;;;;;;1999.90;999.90;;;;;;;0.84;61.57;99462.00;4879904;28;97913;-74
2021/12/01 03:46:13;;;;;;;1999.90;999.90;;;;;;;0.84;61.75;99458.47;4903333;28;97463;-75
2021/12/01 03:48:41;;;;;;;1999.90;999.90;;;;;;;0.84;61.51;99437.53;4892316;28;100431;-76
2021/12/01 03:51:09;;;;;;;1999.90;999.90;;;;;;;0.83;61.40;99436.63;4895724;28;98510;-75
2021/12/01 03:53:37;;;;;;;1999.90;999.90;;;;;;;0.84;61.79;99433.19;4904554;28;97521;-74
2021/12/01 03:56:06;;;;;;;1999.90;999.90;;;;;;;0.84;61.27;99424.44;4872735;28;97343;-74
2021/12/01 03:58:34;;;;;;;1999.90;999.90;;;;;;;0.81;62.43;99421.72;4887174;28;99670;-74
2021/12/01 04:01:02;;;;;;;1999.90;999.90;;;;;;;0.80;61.99;99412.97;4885572;28;100507;-77
2021/12/01 04:03:32;;;;;;;1999.90;999.90;;;;;;;0.82;61.89;99402.53;4899646;28;97252;-73
2021/12/01 04:06:00;;;;;;;1999.90;999.90;;;;;;;0.84;62.06;99400.88;4892056;28;97570;-73
2021/12/01 04:08:28;;;;;;;1999.90;999.90;;;;;;;0.85;62.31;99397.44;4905174;28;97817;-75
2021/12/01 04:10:56;;;;;;;1999.90;999.90;;;;;;;0.88;61.99;99389.69;4904226;28;97684;-73
2021/12/01 04:13:24;;;;;;;1999.90;999.90;;;;;;;0.90;61.63;99377.53;4888028;28;100310;-73
2021/12/01 04:15:52;;;;;;;1999.90;999.90;;;;;;;0.90;61.58;99374.94;4903470;28;97636;-74
2021/12/01 04:18:21;;;;;;;1999.90;999.90;;;;;;;0.90;61.40;99365.34;4886886;28;99315;-74
2021/12/01 04:20:50;;;;;;;1999.90;999.90;;;;;;;0.89;61.98;99352.19;4904977;28;97765;-74
2021/12/01 04:23:18;;;;;;;1999.90;999.90;;;;;;;0.91;61.53;99345.28;4901033;28;98798;-74
2021/12/01 04:25:47;;;;;;;1999.90;999.90;;;;;;;0.89;61.88;99331.22;4887930;28;97053;-74
2021/12/01 04:28:15;;;;;;;1999.90;999.90;;;;;;;0.87;62.37;99338.13;4903907;28;97871;-74
2021/12/01 04:30:43;;;;;;;1999.90;999.90;;;;;;;0.88;61.58;99337.31;4903670;28;98240;-75
2021/12/01 04:33:14;;;;;;;1999.90;999.90;;;;;;;0.88;61.84;99333.00;4888332;28;96944;-75
2021/12/01 04:35:43;;;;;;;1999.90;999.90;;;;;;;0.91;61.65;99319.09;4882050;28;97199;-75
2021/12/01 04:38:13;;;;;;;1999.90;999.90;;;;;;;0.91;62.01;99309.53;4901899;28;98860;-73
2021/12/01 04:40:41;;;;;;;1999.90;999.90;;;;;;;0.88;62.21;99313.75;4885615;28;98459;-74
2021/12/01 04:43:10;;;;;;;1999.90;999.90;;;;;;;0.85;62.69;99303.19;4904195;28;97236;-73
2021/12/01 04:45:42;;;;;;;1999.90;999.90;;;;;;;0.83;62.60;99292.63;4904175;28;96843;-74
2021/12/01 04:48:10;;;;;;;1999.90;999.90;;;;;;;0.86;62.44;99279.69;4902385;28;97741;-72
2021/12/01 04:50:38;;;;;;;1999.90;999.90;;;;;;;0.88;62.72;99274.50;4889118;28;98821;-77
2021/12/01 04:53:06;;;;;;;1999.90;999.90;;;;;;;0.90;62.68;99278.06;4886287;28;97596;-75
2021/12/01 04:55:38;;;;;;;1999.90;999.90;;;;;;;0.94;61.91;99266.84;4886961;28;99458;-74
2021/12/01 04:58:06;;;;;;;1999.90;999.90;;;;;;;0.97;62.04;99269.56;4883739;28;100426;-76
2021/12/01 05:00:36;;;;;;;1999.90;999.90;;;;;;;0.99;61.85;99260.03;4902888;28;99377;-77
2021/12/01 05:03:05;;;;;;;1999.90;999.90;;;;;;;1.01;61.81;99259.22;4882946;28;98381;-73
2021/12/01 05:05:50;;;;;;;1999.90;999.90;;;;;;;1.02;62.08;99254.91;4900187;28;98971;-71
2021/12/01 05:08:20;;;;;;;1999.90;999.90;;;;;;;1.07;61.82;99256.84;4892526;28;98756;-71
2021/12/01 05:10:49;;;;;;;1999.90;999.90;;;;;;;1.10;61.30;99248.22;4899922;28;98898;-72
2021/12/01 05:13:18;;;;;;;1999.90;999.90;;;;;;;1.13;61.41;99235.19;4900551;28;100453;-71
2021/12/01 05:15:47;;;;;;;1999.90;999.90;;;;;;;1.14;61.74;99235.25;4903094;28;98551;-72
2021/12/01 05:18:16;;;;;;;1999.90;999.90;;;;;;;1.13;61.71;99237.81;4899946;28;98797;-72
2021/12/01 05:20:44;;;;;;;1999.90;999.90;;;;;;;1.15;62.00;99236.16;4902903;28;97763;-72
2021/12/01 05:23:15;;;;;;;1999.90;999.90;;;;;;;1.20;61.95;99221.47;4885245;28;96912;-72
2021/12/01 05:25:44;;;;;;;1999.90;999.90;;;;;;;1.22;61.73;99211.94;4879852;28;97820;-71
2021/12/01 05:28:15;;;;;;;1999.90;999.90;;;;;;;1.26;62.16;99198.09;4901577;28;99282;-73
2021/12/01 05:30:44;;;;;;;1999.90;999.90;;;;;;;1.28;61.86;99196.44;4903102;28;96971;-74
2021/12/01 05:33:14;;;;;;;1999.90;999.90;;;;;;;1.32;62.09;99197.41;4884783;28;97189;-73
2021/12/01 05:35:46;;;;;;;1999.90;999.90;;;;;;;1.31;62.99;99195.63;4895706;28;97601;-74
2021/12/01 05:38:15;;;;;;;1999.90;999.90;;;;;;;1.33;62.25;99184.34;4885818;28;98440;-74
2021/12/01 05:40:43;;;;;;;1999.90;999.90;;;;;;;1.36;62.29;99192.31;4897655;28;98772;-74
2021/12/01 05:43:11;;;;;;;1999.90;999.90;;;;;;;1.38;61.92;99188.00;4895716;28;96766;-73
2021/12/01 05:45:42;;;;;;;1999.90;999.90;;;;;;;1.39;62.23;99174.09;4901327;28;96966;-75
2021/12/01 05:48:11;;;;;;;1999.90;999.90;;;;;;;1.42;62.14;99176.78;4900725;28;98545;-76
2021/12/01 05:50:39;;;;;;;1999.90;999.90;;;;;;;1.45;61.89;99178.63;4883979;28;98365;-74
2021/12/01 05:53:07;;;;;;;1999.90;999.90;;;;;;;1.47;61.92;99177.81;4885807;28;97352;-77
2021/12/01 05:55:35;;;;;;;1999.90;999.90;;;;;;;1.50;61.72;99167.44;4881589;28;96938;-73
2021/12/01 05:58:04;;;;;;;1999.90;999.90;;;;;;;1.53;62.25;99169.25;4882260;28;99220;-73
2021/12/01 06:00:32;;;;;;;1999.90;999.90;;;;;;;1.55;61.91;99163.22;4884201;28;99555;-72
2021/12/01 06:03:02;;;;;;;1999.90;999.90;;;;;;;1.59;62.30;99165.13;4884924;28;99828;-74
2021/12/01 06:05:30;;;;;;;1999.90;999.90;;;;;;;1.60;61.82;99153.78;4896264;28;97377;-74
2021/12/01 06:07:58;;;;;;;1999.90;999.90;;;;;;;1.58;63.20;99158.06;4896527;28;97679;-74
2021/12/01 06:10:26;;;;;;;1999.90;999.90;;;;;;;1.58;62.78;99154.59;4882186;28;100351;-75
2021/12/01 06:12:54;;;;;;;1999.90;999.90;;;;;;;1.59;63.13;99154.63;4880776;28;97670;-75
2021/12/01 06:15:22;;;;;;;1999.90;999.90;;;;;;;1.58;63.63;99150.22;4884422;28;97210;-72
2021/12/01 06:17:51;;;;;;;1999.90;999.90;;;;;;;1.60;63.12;99138.03;4901206;28;97913;-72
2021/12/01 06:20:21;;;;;;;1999.90;999.90;;;;;;;1.61;63.29;99133.69;4902296;28;97679;-71
2021/12/01 06:22:50;;;;;;;1999.90;999.90;;;;;;;1.60;63.24;99124.94;4885263;28;97176;-74
2021/12/01 06:25:17;;;;;;;1999.90;999.90;;;;;;;1.61;63.20;99118.88;4880694;28;97575;-74
2021/12/01 06:27:46;;;;;;;1999.90;999.90;;;;;;;1.64;62.96;99116.34;4898235;28;99223;-72
2021/12/01 06:30:14;;;;;;;1999.90;999.90;;;;;;;1.63;64.27;99117.19;4890694;28;97826;-71
2021/12/01 06:32:42;;;;;;;1999.90;999.90;;;;;;;1.63;63.79;99106.69;4905603;28;98021;-72
2021/12/01 06:35:10;;;;;;;1999.90;999.90;;;;;;;1.58;64.67;99105.66;4888765;28;97858;-74
2021/12/01 06:37:40;;;;;;;1999.90;999.90;;;;;;;1.63;63.34;99104.09;4905271;28;97773;-72
2021/12/01 06:40:10;;;;;;;1999.90;999.90;;;;;;;1.66;63.45;99096.31;4907005;28;96817;-72
2021/12/01 06:42:38;;;;;;;1999.90;999.90;;;;;;;1.63;64.06;99085.72;4906779;28;97206;-72
2021/12/01 06:45:08;;;;;;;1999.90;999.90;;;;;;;1.70;63.37;99086.78;4903650;28;97627;-72
2021/12/01 06:47:36;;;;;;;1999.90;999.90;;;;;;;1.71;63.08;99076.34;4889066;28;99051;-73
2021/12/01 06:50:05;;;;;;;1999.90;999.90;;;;;;;1.78;63.60;99070.41;4889899;28;101099;-71
2021/12/01 06:52:34;;;;;;;1999.90;999.90;;;;;;;1.83;62.56;99074.09;4888599;28;97751;-71
2021/12/01 06:55:04;;;;;;;1999.90;999.90;;;;;;;1.86;63.02;99063.69;4900574;28;97532;-73
2021/12/01 06:57:33;;;;;;;1999.90;999.90;;;;;;;1.88;62.65;99062.00;4899965;28;98717;-73
2021/12/01 07:00:01;;;;;;;1999.90;999.90;;;;;;;1.92;63.30;99056.00;4883650;28;101311;-72
2021/12/01 07:02:29;;;;;;;1999.90;999.90;;;;;;;1.93;63.07;99044.63;4905329;28;96818;-72
2021/12/01 07:04:57;;;;;;;1999.90;999.90;;;;;;;1.94;63.13;99037.66;4881154;28;97228;-72
2021/12/01 07:07:25;;;;;;;1999.90;999.90;;;;;;;1.96;62.40;99043.84;4884607;28;100488;-72
2021/12/01 07:09:54;;;;;;;1999.90;999.90;;;;;;;1.94;63.01;99035.94;4898892;28;98913;-73
2021/12/01 07:12:24;;;;;;;1999.90;999.90;;;;;;;1.96;62.72;99028.97;4883924;28;98127;-73
2021/12/01 07:14:52;;;;;;;1999.90;999.90;;;;;;;2.01;62.48;99022.16;4900488;28;97602;-73
2021/12/01 07:17:20;;;;;;;1999.90;999.90;;;;;;;2.02;63.13;99013.41;4903971;28;99412;-71
2021/12/01 07:19:49;;;;;;;1999.90;999.90;;;;;;;2.02;62.65;99008.16;4886765;28;97792;-74
2021/12/01 07:22:20;;;;;;;1999.90;999.90;;;;;;;2.06;62.96;99014.38;4900776;28;97436;-76
2021/12/01 07:24:56;;;;;;;1999.90;999.90;;;;;;;1.99;63.66;99008.09;4880640;28;96770;-71
2021/12/01 07:27:25;;;;;;;1999.90;999.90;;;;;;;2.04;62.79;99006.47;4903070;28;97736;-71
2021/12/01 07:29:53;;;;;;;1999.90;999.90;;;;;;;2.05;62.23;99005.63;4886505;28;99440;-71
2021/12/01 07:32:22;;;;;;;1999.90;999.90;;;;;;;2.02;62.55;98991.53;4865672;28;97816;-71
2021/12/01 07:34:50;;;;;;;1999.90;999.90;;;;;;;1.99;62.47;98992.38;4904499;28;96953;-74
2021/12/01 07:37:19;;;;;;;1999.90;999.90;;;;;;;1.99;62.89;98996.72;4882387;28;100265;-72
2021/12/01 07:39:47;;;;;;;1999.90;999.90;;;;;;;1.96;62.85;98986.16;4903294;28;97753;-72
2021/12/01 07:42:16;;;;;;;1999.90;999.90;;;;;;;1.87;63.76;98988.53;4902624;28;97142;-74
2021/12/01 07:44:56;;;;;;;1999.90;999.90;;;;;;;1.89;63.36;98994.72;4903597;28;97409;-72
2021/12/01 07:47:24;;;;;;;1999.90;999.90;;;;;;;1.89;63.49;98989.47;4886063;28;100976;-73
2021/12/01 07:49:52;;;;;;;1999.90;999.90;;;;;;;1.91;62.45;98982.50;4887926;28;99761;-72
2021/12/01 07:52:20;;;;;;;1999.90;999.90;;;;;;;1.89;62.56;98989.47;4905393;28;97136;-71
2021/12/01 07:54:48;;;;;;;1999.90;999.90;;;;;;;1.88;63.16;98980.69;4903999;28;97196;-71
2021/12/01 07:57:17;;;;;;;1999.90;999.90;;;;;;;1.94;62.20;98982.59;4887285;28;99606;-72
2021/12/01 07:59:49;;;;;;;1999.90;999.90;;;;;;;1.88;63.04;98978.06;4890243;28;100330;-71
2021/12/01 08:02:17;;;;;;;1999.90;999.90;;;;;;;1.91;62.51;98974.63;4887185;28;97752;-71
2021/12/01 08:04:48;;;;;;;1999.90;999.90;;;;;;;1.92;62.05;98974.69;4905035;28;97264;-71
2021/12/01 08:07:16;;;;;;;1999.90;999.90;;;;;;;1.93;62.29;98968.59;4905719;28;99945;-73
2021/12/01 08:09:44;;;;;;;1999.90;999.90;;;;;;;1.96;62.54;98963.41;4890942;28;97815;-73
2021/12/01 08:12:13;;;;;;;1999.90;999.90;;;;;;;2.01;62.01;98963.53;4888344;28;96737;-72
2021/12/01 08:14:42;;;;;;;1999.90;999.90;;;;;;;2.03;61.58;98962.75;4889540;28;97455;-70
2021/12/01 08:17:11;;;;;;;1999.90;999.90;;;;;;;2.06;61.86;98962.81;4890219;28;98893;-70
2021/12/01 08:19:40;;;;;;;1999.90;999.90;;;;;;;2.07;62.00;98946.22;4905656;28;97774;-72
2021/12/01 08:22:09;;;;;;;1999.90;999.90;;;;;;;2.08;62.17;98945.38;4903709;28;97025;-70
2021/12/01 08:24:37;;;;;;;1999.90;999.90;;;;;;;2.11;62.15;98949.84;4887538;28;96778;-71
2021/12/01 08:27:07;;;;;;;1999.90;999.90;;;;;;;2.05;62.15;98944.44;4870509;28;99424;-69
2021/12/01 08:29:35;;;;;;;1999.90;999.90;;;;;;;2.05;61.34;98934.78;4889985;28;97550;-69
2021/12/01 08:32:04;;;;;;;1999.90;999.90;;;;;;;2.04;61.71;98932.13;4889227;28;96797;-70
2021/12/01 08:34:34;;;;;;;1999.90;999.90;;;;;;;2.02;61.43;98936.44;4887912;28;97333;-70
2021/12/01 08:37:02;;;;;;;1999.90;999.90;;;;;;;2.03;61.93;98926.03;4890039;28;99637;-69
2021/12/01 08:39:30;;;;;;;1999.90;999.90;;;;;;;2.01;61.43;98930.34;4901979;28;98090;-70
2021/12/01 08:41:58;;;;;;;1999.90;999.90;;;;;;;2.00;61.74;98918.06;4903942;28;98033;-69
2021/12/01 08:44:26;;;;;;;1999.90;999.90;;;;;;;2.04;61.82;98914.69;4903089;28;98669;-71
2021/12/01 08:46:55;;;;;;;1999.90;999.90;;;;;;;2.07;61.47;98912.13;4896564;28;100781;-72
2021/12/01 08:49:23;;;;;;;1999.90;999.90;;;;;;;2.07;60.95;98911.25;4905096;28;97624;-71
2021/12/01 08:51:52;;;;;;;1999.90;999.90;;;;;;;2.10;61.31;98906.09;4887743;28;96974;-73
2021/12/01 08:54:21;;;;;;;1999.90;999.90;;;;;;;2.11;61.06;98903.53;4891328;28;97339;-72
2021/12/01 08:56:49;;;;;;;1999.90;999.90;;;;;;;2.12;61.41;98896.53;4903335;28;97675;-70
2021/12/01 08:59:17;;;;;;;1999.90;999.90;;;;;;;2.12;61.34;98884.31;4904402;28;97770;-74
2021/12/01 09:01:44;;;;;;;1999.90;999.90;;;;;;;2.15;61.25;98883.50;4893665;28;96789;-70
2021/12/01 09:04:13;;;;;;;1999.90;999.90;;;;;;;2.12;61.25;98881.69;4903335;28;97179;-71
2021/12/01 09:06:41;;;;;;;1999.90;999.90;;;;;;;2.11;60.88;98885.16;4888768;28;99393;-71
2021/12/01 09:09:17;;;;;;;1999.90;999.90;;;;;;;2.12;60.46;98876.44;4903834;28;96728;-70
2021/12/01 09:11:46;;;;;;;1999.90;999.90;;;;;;;2.13;60.90;98867.72;4886250;28;97737;-72
2021/12/01 09:14:14;;;;;;;1999.90;999.90;;;;;;;2.04;61.44;98870.09;4871766;28;97400;-72
2021/12/01 09:16:43;;;;;;;1999.90;999.90;;;;;;;2.08;61.11;98861.44;4887866;28;98624;-70
2021/12/01 09:19:11;;;;;;;1999.90;999.90;;;;;;;2.11;61.21;98866.78;4889469;28;97924;-72
2021/12/01 09:21:39;;;;;;;1999.90;999.90;;;;;;;2.12;61.02;98852.84;4904801;28;97073;-71
2021/12/01 09:24:08;;;;;;;1999.90;999.90;;;;;;;2.13;60.58;98854.59;4888160;28;96712;-71
2021/12/01 09:26:37;;;;;;;1999.90;999.90;;;;;;;2.04;60.68;98837.72;4886454;28;99029;-71
2021/12/01 09:29:06;;;;;;;1999.90;999.90;;;;;;;2.06;61.33;98830.78;4886215;28;100291;-71
2021/12/01 09:31:34;;;;;;;1999.90;999.90;;;;;;;2.07;60.76;98832.56;4888273;28;97444;-71
2021/12/01 09:34:02;;;;;;;1999.90;999.90;;;;;;;2.09;60.75;98831.75;4871259;28;98226;-72
2021/12/01 09:36:31;;;;;;;1999.90;999.90;;;;;;;2.09;61.07;98821.28;4876458;28;98417;-70
2021/12/01 09:38:59;;;;;;;1999.90;999.90;;;;;;;2.12;60.91;98824.00;4885456;28;97133;-70
2021/12/01 09:41:29;;;;;;;1999.90;999.90;;;;;;;2.14;60.63;98816.16;4887103;28;97968;-70
2021/12/01 09:43:58;;;;;;;1999.90;999.90;;;;;;;2.15;60.88;98818.81;4892841;28;97441;-70
2021/12/01 09:46:30;;;;;;;1999.90;999.90;;;;;;;2.20;60.70;98824.13;4892644;28;96805;-71
2021/12/01 09:48:59;;;;;;;1999.90;999.90;;;;;;;2.22;60.95;98824.19;4904301;28;96959;-71
2021/12/01 09:51:27;;;;;;;1999.90;999.90;;;;;;;2.23;60.23;98812.84;4904458;28;96811;-71
2021/12/01 09:53:57;;;;;;;1999.90;999.90;;;;;;;2.22;60.71;98818.94;4889129;28;97437;-70
2021/12/01 09:56:25;;;;;;;1999.90;999.90;;;;;;;2.17;60.22;98809.22;4889965;28;97413;-71
2021/12/01 09:58:54;;;;;;;1999.90;999.90;;;;;;;2.20;60.74;98801.41;4871991;28;100110;-71
2021/12/01 10:01:25;;;;;;;1999.90;999.90;;;;;;;2.24;60.23;98796.25;4900952;28;97002;-71
2021/12/01 10:03:54;;;;;;;1999.90;999.90;;;;;;;2.23;60.74;98786.59;4891851;28;97599;-72
2021/12/01 10:06:23;;;;;;;1999.90;999.90;;;;;;;2.24;60.90;98780.53;4891978;28;98725;-72
2021/12/01 10:08:53;;;;;;;1999.90;999.90;;;;;;;2.24;60.64;98777.91;4908280;28;99130;-70
2021/12/01 10:11:23;;;;;;;1999.90;999.90;;;;;;;2.25;60.79;98779.66;4907984;28;97319;-72
2021/12/01 10:13:54;;;;;;;1999.90;999.90;;;;;;;2.24;60.38;98767.41;4907712;28;97325;-70
2021/12/01 10:16:26;;;;;;;1999.90;999.90;;;;;;;2.19;60.00;98765.56;4889470;28;99669;-70
2021/12/01 10:18:56;;;;;;;1999.90;999.90;;;;;;;2.17;60.36;98762.00;4890972;28;96824;-70
2021/12/01 10:21:26;;;;;;;1999.90;999.90;;;;;;;2.23;60.37;98760.38;4906802;28;96880;-71
2021/12/01 10:23:56;;;;;;;1999.90;999.90;;;;;;;2.27;60.65;98752.63;4890254;28;97737;-73
2021/12/01 10:26:26;;;;;;;1999.90;999.90;;;;;;;2.26;60.57;98745.56;4873875;28;98838;-70
2021/12/01 10:28:56;;;;;;;1999.90;999.90;;;;;;;2.25;60.15;98737.69;4905721;28;97146;-73
2021/12/01 10:31:35;;;;;;;1999.90;999.90;;;;;;;2.25;60.43;98729.81;4907566;28;98490;-70
2021/12/01 10:34:31;;;;;;;1999.90;999.90;;;;;;;2.34;60.63;98724.75;4890762;28;96832;-70
2021/12/01 10:37:11;;;;;;;1999.90;999.90;;;;;;;2.37;60.26;98719.56;4845950;28;98126;-70
2021/12/01 10:39:41;;;;;;;1999.90;999.90;;;;;;;2.40;59.98;98712.63;4907522;28;98816;-72
2021/12/01 10:42:11;;;;;;;1999.90;999.90;;;;;;;2.44;60.40;98713.59;4906918;28;97593;-70
2021/12/01 10:44:55;;;;;;;1999.90;999.90;;;;;;;2.47;59.71;98697.91;4875044;28;97232;-70
2021/12/01 10:47:24;;;;;;;1999.90;999.90;;;;;;;2.52;60.10;98685.75;4906452;28;97118;-74
2021/12/01 10:49:58;;;;;;;1999.90;999.90;;;;;;;2.53;60.17;98685.78;4906733;28;97858;-71
2021/12/01 10:52:34;;;;;;;1999.90;999.90;;;;;;;2.58;60.06;98675.38;4891104;28;96945;-71
2021/12/01 10:55:08;;;;;;;1999.90;999.90;;;;;;;2.61;60.04;98667.56;4875168;28;96982;-69
2021/12/01 10:57:39;;;;;;;1999.90;999.90;;;;;;;2.64;60.15;98663.25;4890299;28;98730;-69
2021/12/01 11:00:17;;;;;;;1999.90;999.90;;;;;;;2.61;59.48;98662.31;4907055;28;97990;-71
2021/12/01 11:02:47;;;;;;;1999.90;999.90;;;;;;;2.63;60.11;98657.97;4889417;28;97395;-72
2021/12/01 11:05:30;;;;;;;1999.90;999.90;;;;;;;2.61;60.36;98643.94;4906502;28;97553;-71
2021/12/01 11:08:10;;;;;;;1999.90;999.90;;;;;;;2.49;59.91;98633.22;4863948;28;100035;-70
2021/12/01 11:10:39;;;;;;;1999.90;999.90;;;;;;;2.43;60.47;98633.09;4905158;28;99802;-70
2021/12/01 11:13:07;;;;;;;1999.90;999.90;;;;;;;2.43;60.47;98635.72;4873401;28;97879;-70
2021/12/01 11:15:37;;;;;;;1999.90;999.90;;;;;;;2.41;60.38;98629.53;4906902;28;96918;-71